Time;durP1;ratioP1;P1;durP2;ratioP2;P2;SDS_P1;SDS_P2;PMS_P1;PMS_P2;Temp;Humidity;BMP_temperature;BMP_pressure;BME280_temperature;BME280_humidity;BME280_pressure;Samples;Min_cycle;Max_cycle;Signal;HPM_P1;HPM_P2
2022/07/19 00:01:39;;;;;;;4.95;3.22;;;;;;;22.60;58.66;101868.41;5052354;28;20089;-75
2022/07/19 00:04:05;;;;;;;2.88;2.67;;;;;;;22.59;58.19;101866.69;5055065;28;20041;-76
2022/07/19 00:06:30;;;;;;;3.40;3.10;;;;;;;22.56;58.26;101870.47;5064016;28;20028;-76
2022/07/19 00:08:56;;;;;;;3.20;2.90;;;;;;;22.54;58.60;101869.72;5058139;28;20331;-76
2022/07/19 00:11:21;;;;;;;3.20;2.90;;;;;;;22.52;58.71;101862.78;5058765;28;20387;-76
2022/07/19 00:13:47;;;;;;;3.50;3.25;;;;;;;22.50;58.75;101854.88;5055627;28;20236;-75
2022/07/19 00:16:12;;;;;;;5.28;3.03;;;;;;;22.47;58.72;101851.63;5057462;28;20340;-75
2022/07/19 00:18:37;;;;;;;4.18;2.88;;;;;;;22.45;58.87;101846.41;5041333;28;20044;-76
2022/07/19 00:21:03;;;;;;;4.07;3.15;;;;;;;22.43;58.85;101851.84;5043061;28;20123;-75
2022/07/19 00:23:28;;;;;;;3.25;2.95;;;;;;;22.41;58.91;101847.56;5042210;28;20145;-76
2022/07/19 00:25:54;;;;;;;3.25;2.97;;;;;;;22.39;59.28;101850.38;5066628;28;20037;-75
2022/07/19 00:28:19;;;;;;;5.65;3.38;;;;;;;22.38;59.18;101848.69;5057148;28;20393;-76
2022/07/19 00:30:44;;;;;;;3.30;3.08;;;;;;;22.33;59.31;101842.81;5047558;28;20287;-76
2022/07/19 00:33:10;;;;;;;4.70;3.40;;;;;;;22.32;59.56;101846.47;5074220;28;20297;-75
2022/07/19 00:35:36;;;;;;;3.20;2.97;;;;;;;22.29;59.77;101844.03;5053549;28;20047;-76
2022/07/19 00:38:07;;;;;;;4.15;3.30;;;;;;;22.26;60.00;101841.56;5057865;28;20053;-75
2022/07/19 00:40:32;;;;;;;3.60;3.30;;;;;;;22.26;60.15;101851.38;5069610;28;20032;-76
2022/07/19 00:42:57;;;;;;;6.18;3.25;;;;;;;22.23;60.82;101849.81;5049490;28;20098;-76
2022/07/19 00:45:23;;;;;;;3.53;3.22;;;;;;;22.19;60.98;101853.63;5040014;28;20032;-76
2022/07/19 00:47:49;;;;;;;5.25;3.47;;;;;;;22.17;60.62;101850.22;5060103;28;20043;-76
2022/07/19 00:50:14;;;;;;;3.47;3.17;;;;;;;22.15;60.79;101850.34;5036882;28;20060;-76
2022/07/19 00:52:42;;;;;;;7.60;3.75;;;;;;;22.13;60.89;101846.09;5041422;28;20062;-76
2022/07/19 00:55:09;;;;;;;4.20;3.22;;;;;;;22.10;61.00;101849.81;5042036;28;20056;-76
2022/07/19 00:57:37;;;;;;;3.53;3.22;;;;;;;22.08;61.01;101845.59;5060396;28;20363;-76
2022/07/19 01:00:04;;;;;;;3.60;3.30;;;;;;;22.05;61.08;101852.84;5037387;28;20045;-75
2022/07/19 01:05:11;;;;;;;4.43;3.53;;;;;;;22.01;60.69;101845.16;5052034;28;20049;-75
2022/07/19 01:07:38;;;;;;;3.33;3.03;;;;;;;21.99;60.67;101850.63;5055459;28;20074;-76
2022/07/19 01:10:06;;;;;;;3.00;2.78;;;;;;;21.99;60.40;101847.09;5055230;28;20033;-75
2022/07/19 01:12:32;;;;;;;3.33;3.03;;;;;;;21.97;60.51;101836.53;5062643;28;20304;-75
2022/07/19 01:14:58;;;;;;;3.13;2.90;;;;;;;21.97;60.60;101838.38;5063225;28;20049;-75
2022/07/19 01:17:23;;;;;;;3.88;3.15;;;;;;;21.95;60.59;101837.63;5028214;28;20401;-75
2022/07/19 01:19:49;;;;;;;4.07;3.22;;;;;;;21.94;60.33;101849.25;5040009;28;20053;-75
2022/07/19 01:22:15;;;;;;;3.35;3.05;;;;;;;21.92;60.57;101843.19;5069661;28;20059;-75
2022/07/19 01:24:40;;;;;;;3.03;2.70;;;;;;;21.91;60.74;101841.50;5059204;28;20059;-75
2022/07/19 01:27:07;;;;;;;4.57;2.70;;;;;;;21.90;60.83;101837.09;5058534;28;20375;-75
2022/07/19 01:29:37;;;;;;;3.00;2.80;;;;;;;21.88;60.64;101839.88;5042373;28;20059;-75
2022/07/19 01:32:04;;;;;;;3.10;2.90;;;;;;;21.87;60.79;101838.19;5063136;28;20322;-75
2022/07/19 01:34:30;;;;;;;4.63;2.85;;;;;;;21.84;60.70;101830.41;5060481;28;20118;-75
2022/07/19 01:36:55;;;;;;;5.35;3.30;;;;;;;21.82;60.60;101832.34;5076164;28;20298;-75
2022/07/19 01:39:21;;;;;;;4.05;3.03;;;;;;;21.81;60.64;101830.63;5059700;28;20041;-75
2022/07/19 01:41:46;;;;;;;4.47;2.90;;;;;;;21.80;60.64;101832.44;5041656;28;20024;-75
2022/07/19 01:44:12;;;;;;;2.92;2.60;;;;;;;21.79;60.40;101832.56;5074446;28;20070;-75
2022/07/19 01:46:37;;;;;;;3.13;2.90;;;;;;;21.77;60.63;101822.00;5078058;28;20036;-75
2022/07/19 01:49:03;;;;;;;2.95;2.75;;;;;;;21.76;60.56;101827.47;5035470;28;20048;-75
2022/07/19 01:51:28;;;;;;;3.20;2.90;;;;;;;21.74;60.38;101818.69;5064599;28;20040;-75
2022/07/19 01:53:54;;;;;;;3.67;2.92;;;;;;;21.73;60.47;101828.53;5062354;28;20351;-75
2022/07/19 01:56:19;;;;;;;3.15;2.95;;;;;;;21.72;60.26;101823.28;5049453;28;20041;-75
2022/07/19 01:58:44;;;;;;;4.78;3.40;;;;;;;21.70;60.34;101822.56;5049840;28;20044;-75
2022/07/19 02:01:10;;;;;;;3.92;3.45;;;;;;;21.70;60.63;101819.91;5051012;28;20221;-76
2022/07/19 02:03:35;;;;;;;3.80;3.55;;;;;;;21.66;60.42;101811.25;5072398;28;20222;-75
2022/07/19 02:06:00;;;;;;;4.25;3.25;;;;;;;21.65;60.42;101814.91;5056301;28;20051;-75
2022/07/19 02:08:26;;;;;;;4.55;3.60;;;;;;;21.62;60.73;101815.97;5047153;28;20347;-75
2022/07/19 02:10:51;;;;;;;4.30;3.90;;;;;;;21.59;60.97;101818.88;5066548;28;20122;-75
2022/07/19 02:13:17;;;;;;;8.77;3.40;;;;;;;21.57;60.78;101818.09;5041306;28;20049;-75
2022/07/19 02:15:42;;;;;;;4.75;4.00;;;;;;;21.57;60.86;101811.94;5063110;28;20133;-75
2022/07/19 02:18:07;;;;;;;4.32;3.40;;;;;;;21.55;60.78;101805.88;5069621;28;20028;-75
2022/07/19 02:20:33;;;;;;;3.65;3.35;;;;;;;21.53;61.01;101811.31;5049049;28;20277;-75
2022/07/19 02:22:58;;;;;;;4.07;3.42;;;;;;;21.51;60.79;101801.72;5077065;28;20295;-75
2022/07/19 02:25:24;;;;;;;5.88;3.65;;;;;;;21.49;61.45;101804.50;5053111;28;20029;-75
2022/07/19 02:27:49;;;;;;;6.38;3.83;;;;;;;21.47;61.00;101798.44;5057033;28;20059;-75
2022/07/19 02:30:16;;;;;;;4.40;3.53;;;;;;;21.46;60.99;101797.56;5076733;28;20099;-78
2022/07/19 02:32:42;;;;;;;5.95;4.25;;;;;;;21.44;61.13;101799.44;5041880;28;20053;-78
2022/07/19 02:35:08;;;;;;;3.30;3.00;;;;;;;21.42;61.24;101798.72;5022539;28;20033;-79
2022/07/19 02:37:34;;;;;;;6.07;3.97;;;;;;;21.40;61.07;101792.66;5065287;28;20218;-78
2022/07/19 02:39:59;;;;;;;4.80;3.40;;;;;;;21.40;61.25;101797.13;5054009;28;20041;-78
2022/07/19 02:42:24;;;;;;;5.13;3.95;;;;;;;21.38;61.19;101793.72;5042244;28;20045;-78
2022/07/19 02:44:50;;;;;;;4.00;3.45;;;;;;;21.38;61.17;101799.06;5041403;28;20068;-78
2022/07/19 02:47:15;;;;;;;6.03;3.70;;;;;;;21.36;61.21;101798.31;5064668;28;20086;-78
2022/07/19 02:49:41;;;;;;;4.43;3.80;;;;;;;21.35;61.01;101794.78;5056021;28;20037;-77
2022/07/19 02:52:06;;;;;;;7.47;4.10;;;;;;;21.33;61.00;101790.53;5057462;28;20044;-78
2022/07/19 02:54:31;;;;;;;4.68;3.78;;;;;;;21.32;60.99;101788.81;5055149;28;20040;-77
2022/07/19 02:56:57;;;;;;;5.72;3.90;;;;;;;21.28;61.03;101791.72;5059988;28;20119;-78
2022/07/19 02:59:22;;;;;;;5.72;3.85;;;;;;;21.27;61.11;101790.00;5078132;28;20040;-78
2022/07/19 03:01:47;;;;;;;4.47;3.83;;;;;;;21.25;61.50;101791.94;5078141;28;20032;-77
2022/07/19 03:04:13;;;;;;;4.72;4.07;;;;;;;21.24;61.20;101789.38;5073875;28;20101;-77
2022/07/19 03:06:38;;;;;;;5.00;4.30;;;;;;;21.22;61.15;101793.97;5039438;28;20044;-77
2022/07/19 03:09:04;;;;;;;6.28;4.20;;;;;;;21.21;61.61;101790.44;5041847;28;20143;-77
2022/07/19 03:11:29;;;;;;;4.05;3.75;;;;;;;21.20;61.44;101796.72;5058758;28;20106;-78
2022/07/19 03:13:54;;;;;;;5.95;4.40;;;;;;;21.19;61.31;101788.84;5066339;28;20238;-78
2022/07/19 03:16:21;;;;;;;4.43;4.03;;;;;;;21.17;61.59;101785.44;5061431;28;20103;-78
2022/07/19 03:18:46;;;;;;;4.65;4.15;;;;;;;21.16;61.81;101789.06;5056961;28;20024;-78
2022/07/19 03:21:11;;;;;;;6.40;4.72;;;;;;;21.14;62.05;101786.50;5044299;28;20054;-78
2022/07/19 03:23:37;;;;;;;5.82;4.38;;;;;;;21.12;61.97;101784.91;5078619;28;20267;-78
2022/07/19 03:26:05;;;;;;;7.03;5.15;;;;;;;21.11;61.93;101781.41;5073940;28;20048;-78
2022/07/19 03:28:31;;;;;;;7.20;5.03;;;;;;;21.09;62.03;101783.31;5061364;28;20059;-77
2022/07/19 03:30:56;;;;;;;5.68;5.07;;;;;;;21.07;62.03;101788.75;5057866;28;20033;-78
2022/07/19 03:33:22;;;;;;;5.60;5.10;;;;;;;21.05;62.25;101782.69;5043945;28;20250;-78
2022/07/19 03:35:47;;;;;;;6.20;5.10;;;;;;;21.05;62.25;101781.84;5008193;28;20025;-78
2022/07/19 03:38:15;;;;;;;7.03;5.03;;;;;;;21.04;62.28;101782.78;5063658;28;20037;-78
2022/07/19 03:40:41;;;;;;;7.30;5.70;;;;;;;21.03;62.20;101786.44;5057690;28;20363;-77
2022/07/19 03:43:06;;;;;;;5.78;5.28;;;;;;;21.00;62.28;101773.31;5063936;28;20033;-78
2022/07/19 03:45:32;;;;;;;7.75;5.20;;;;;;;20.98;62.33;101776.09;5048853;28;20291;-77
2022/07/19 03:47:58;;;;;;;10.18;5.50;;;;;;;20.96;62.59;101778.00;5072176;28;20459;-78
2022/07/19 03:50:23;;;;;;;5.53;5.03;;;;;;;20.96;62.48;101779.81;5059909;28;20127;-78
2022/07/19 03:52:49;;;;;;;6.10;5.50;;;;;;;20.93;62.51;101774.69;5050677;28;20030;-78
2022/07/19 03:55:14;;;;;;;6.43;5.80;;;;;;;20.91;62.88;101774.81;5022595;28;20037;-77
2022/07/19 03:57:39;;;;;;;9.20;5.45;;;;;;;20.90;62.69;101778.41;5063473;28;20100;-77
2022/07/19 04:00:06;;;;;;;6.18;5.07;;;;;;;20.89;62.89;101782.06;5047864;28;20248;-77
2022/07/19 04:02:31;;;;;;;8.25;4.82;;;;;;;20.87;62.85;101778.66;5075055;28;20306;-78
2022/07/19 04:04:57;;;;;;;5.85;5.28;;;;;;;20.85;62.85;101778.75;5055291;28;20451;-78
2022/07/19 04:07:22;;;;;;;6.35;4.65;;;;;;;20.85;62.67;101783.22;5054062;28;20036;-77
2022/07/19 04:09:48;;;;;;;4.95;4.55;;;;;;;20.85;62.67;101792.06;5065881;28;20073;-78
2022/07/19 04:12:13;;;;;;;8.13;5.18;;;;;;;20.84;62.59;101779.69;5046683;28;20043;-77
2022/07/19 04:14:38;;;;;;;8.98;5.28;;;;;;;20.83;62.66;101782.47;5053240;28;20063;-78
2022/07/19 04:17:04;;;;;;;8.02;5.38;;;;;;;20.82;62.92;101773.63;5035380;28;20032;-78
2022/07/19 04:19:30;;;;;;;7.07;5.13;;;;;;;20.81;62.93;101771.94;5054141;28;20048;-77
2022/07/19 04:21:57;;;;;;;7.65;5.38;;;;;;;20.80;62.92;101780.88;5059872;28;20048;-78
2022/07/19 04:24:22;;;;;;;13.85;5.25;;;;;;;20.80;63.00;101782.69;5040688;28;20048;-78
2022/07/19 04:26:47;;;;;;;7.07;5.63;;;;;;;20.78;63.11;101780.13;5027268;28;20040;-77
2022/07/19 04:29:13;;;;;;;8.05;5.50;;;;;;;20.77;63.08;101785.56;5074256;28;20063;-78
2022/07/19 04:31:38;;;;;;;6.57;5.40;;;;;;;20.77;63.36;101788.22;5043428;28;20110;-78
2022/07/19 04:34:04;;;;;;;7.30;5.22;;;;;;;20.75;63.47;101782.16;5056998;28;20037;-77
2022/07/19 04:36:29;;;;;;;6.63;5.00;;;;;;;20.74;63.54;101786.63;5038318;28;20028;-78
2022/07/19 04:38:54;;;;;;;9.00;5.82;;;;;;;20.73;63.57;101787.56;5056179;28;20132;-78
2022/07/19 04:41:19;;;;;;;6.25;5.45;;;;;;;20.73;63.36;101784.91;5041685;28;20095;-77
2022/07/19 04:43:45;;;;;;;6.53;5.90;;;;;;;20.72;63.48;101775.25;5048742;28;20043;-78
2022/07/19 04:46:10;;;;;;;10.45;5.47;;;;;;;20.72;63.44;101777.91;5041368;28;20108;-77
2022/07/19 04:48:36;;;;;;;5.75;5.07;;;;;;;20.71;63.36;101771.72;5067130;28;20036;-77
2022/07/19 04:51:01;;;;;;;10.20;5.40;;;;;;;20.71;63.61;101773.53;5037912;28;20071;-77
2022/07/19 04:53:26;;;;;;;7.07;5.40;;;;;;;20.70;63.81;101772.69;5059528;28;20350;-77
2022/07/19 04:55:52;;;;;;;6.70;5.70;;;;;;;20.71;63.86;101785.00;5055776;28;20064;-77
2022/07/19 04:58:17;;;;;;;5.57;5.05;;;;;;;20.70;63.82;101779.78;5037883;28;20037;-77
2022/07/19 05:00:42;;;;;;;5.95;4.82;;;;;;;20.71;63.60;101776.19;5057697;28;20049;-77
2022/07/19 05:03:08;;;;;;;5.72;5.00;;;;;;;20.70;63.79;101771.81;5052188;28;20367;-77
2022/07/19 05:05:33;;;;;;;5.28;4.55;;;;;;;20.72;63.62;101775.25;5056055;28;20288;-78
2022/07/19 05:07:58;;;;;;;6.30;4.70;;;;;;;20.73;63.42;101770.75;5056124;28;20036;-77
2022/07/19 05:10:24;;;;;;;7.10;5.00;;;;;;;20.72;63.46;101772.59;5037754;28;20201;-77
2022/07/19 05:12:49;;;;;;;5.18;4.68;;;;;;;20.72;63.52;101772.59;5038407;28;20285;-77
2022/07/19 05:15:15;;;;;;;7.82;5.63;;;;;;;20.72;63.60;101767.25;5044545;28;20040;-77
2022/07/19 05:17:40;;;;;;;4.72;4.32;;;;;;;20.73;63.34;101774.25;5037502;28;20067;-77
2022/07/19 05:20:06;;;;;;;5.18;4.68;;;;;;;20.73;63.54;101771.59;5053293;28;20139;-77
2022/07/19 05:22:32;;;;;;;5.88;4.45;;;;;;;20.73;63.89;101768.94;5046795;28;20041;-76
2022/07/19 05:24:58;;;;;;;6.50;4.78;;;;;;;20.74;63.93;101773.31;5021680;28;20152;-77
2022/07/19 05:27:24;;;;;;;4.97;4.47;;;;;;;20.73;63.50;101771.59;5056571;28;20041;-77
2022/07/19 05:29:49;;;;;;;7.25;4.40;;;;;;;20.74;63.35;101767.13;5050558;28;20040;-78
2022/07/19 05:32:15;;;;;;;6.13;4.70;;;;;;;20.73;63.70;101771.59;5057560;28;20084;-77
2022/07/19 05:34:41;;;;;;;5.15;4.75;;;;;;;20.75;63.85;101774.16;5037451;28;20033;-77
2022/07/19 05:37:06;;;;;;;15.10;7.70;;;;;;;20.77;64.81;101783.72;5040227;28;20052;-77
2022/07/19 05:39:31;;;;;;;16.08;9.13;;;;;;;20.76;65.11;101782.06;5055498;28;20083;-78
2022/07/19 05:41:57;;;;;;;14.55;9.02;;;;;;;20.79;65.34;101781.84;5041783;28;20228;-78
2022/07/19 05:44:23;;;;;;;10.98;7.82;;;;;;;20.83;64.87;101775.34;5057203;28;20114;-78
2022/07/19 05:46:48;;;;;;;10.50;7.47;;;;;;;20.88;64.98;101775.00;5052960;28;20036;-77
2022/07/19 05:49:14;;;;;;;16.98;10.23;;;;;;;20.86;65.77;101775.09;5036146;28;20311;-77
2022/07/19 05:51:40;;;;;;;14.77;9.60;;;;;;;20.91;65.79;101777.47;5046620;28;20225;-77
2022/07/19 05:54:06;;;;;;;19.35;10.40;;;;;;;20.94;65.46;101774.59;5047098;28;20353;-77
2022/07/19 05:56:32;;;;;;;10.68;6.68;;;;;;;20.98;65.18;101781.41;5030904;28;20335;-78
2022/07/19 05:58:57;;;;;;;10.88;9.52;;;;;;;20.99;65.69;101772.47;5030608;28;20048;-77
2022/07/19 06:01:23;;;;;;;10.00;7.68;;;;;;;21.04;65.23;101780.13;5044497;28;20033;-77
2022/07/19 06:03:56;;;;;;;7.60;6.70;;;;;;;21.06;65.36;101772.88;5054320;28;20024;-77
2022/07/19 06:06:23;;;;;;;9.32;7.07;;;;;;;21.07;65.79;101771.94;5050742;28;20029;-77
2022/07/19 06:08:49;;;;;;;13.07;7.03;;;;;;;21.08;65.40;101768.28;5046529;28;20032;-77
2022/07/19 06:11:16;;;;;;;7.30;6.18;;;;;;;21.09;65.62;101770.84;5051905;28;20099;-77
2022/07/19 06:13:43;;;;;;;6.60;5.82;;;;;;;21.11;65.43;101767.25;5024028;28;20329;-78
2022/07/19 06:16:10;;;;;;;5.32;4.82;;;;;;;21.11;65.41;101772.56;5051130;28;20056;-77
2022/07/19 06:18:36;;;;;;;5.85;5.22;;;;;;;21.11;65.37;101770.75;5052343;28;20040;-77
2022/07/19 06:21:04;;;;;;;8.32;6.78;;;;;;;21.13;65.76;101770.63;5032525;28;20037;-77
2022/07/19 06:23:29;;;;;;;12.57;7.35;;;;;;;21.14;65.88;101767.88;5042317;28;20040;-77
2022/07/19 06:25:55;;;;;;;7.47;5.80;;;;;;;21.16;65.75;101765.09;5047552;28;20029;-77
2022/07/19 06:28:20;;;;;;;5.72;4.45;;;;;;;21.18;65.62;101772.00;5028677;28;20037;-77
2022/07/19 06:30:46;;;;;;;5.18;4.63;;;;;;;21.21;65.43;101771.81;5035666;28;20228;-77
2022/07/19 06:33:11;;;;;;;7.78;5.20;;;;;;;21.22;65.38;101767.31;5036052;28;20256;-77
2022/07/19 06:35:36;;;;;;;10.63;5.80;;;;;;;21.25;65.59;101762.63;5061336;28;20232;-77
2022/07/19 06:38:02;;;;;;;8.05;5.47;;;;;;;21.28;65.54;101773.06;5035995;28;20109;-77
2022/07/19 06:40:28;;;;;;;9.68;5.03;;;;;;;21.31;65.65;101769.31;5031641;28;20359;-78
2022/07/19 06:42:53;;;;;;;7.05;5.07;;;;;;;21.33;65.84;101764.72;5053046;28;20037;-78
2022/07/19 06:45:18;;;;;;;9.32;5.03;;;;;;;21.37;65.76;101765.38;5054850;28;20079;-78
2022/07/19 06:47:44;;;;;;;8.23;5.25;;;;;;;21.41;65.38;101772.16;5051089;28;20348;-78
2022/07/19 06:50:10;;;;;;;5.53;4.70;;;;;;;21.46;65.98;101767.41;5056920;28;20084;-78
2022/07/19 06:52:35;;;;;;;5.90;5.35;;;;;;;21.51;66.34;101769.75;5022838;28;20037;-78
2022/07/19 06:55:01;;;;;;;6.20;4.95;;;;;;;21.56;66.36;101765.78;5022755;28;20323;-78
2022/07/19 06:57:26;;;;;;;6.43;5.40;;;;;;;21.63;65.79;101761.72;5031231;28;20061;-78
2022/07/19 06:59:51;;;;;;;12.13;4.97;;;;;;;21.67;65.83;101747.19;5046694;28;20156;-78
2022/07/19 07:02:17;;;;;;;10.85;5.38;;;;;;;21.73;64.95;101753.88;5048258;28;20068;-78
2022/07/19 07:04:42;;;;;;;7.30;5.90;;;;;;;21.81;64.68;101755.97;5056667;28;20029;-78
2022/07/19 07:07:07;;;;;;;5.75;4.95;;;;;;;21.87;64.54;101752.88;5052409;28;20037;-78
2022/07/19 07:09:33;;;;;;;7.90;5.75;;;;;;;21.92;64.09;101749.84;5018722;28;20116;-78
2022/07/19 07:11:58;;;;;;;8.73;5.50;;;;;;;21.96;64.48;101748.69;5049907;28;20232;-77
2022/07/19 07:14:23;;;;;;;11.00;6.00;;;;;;;22.03;65.94;101748.09;5050520;28;20304;-77
2022/07/19 07:16:49;;;;;;;9.63;6.72;;;;;;;22.13;66.13;101750.91;5024472;28;20049;-78
2022/07/19 07:19:14;;;;;;;8.10;5.78;;;;;;;22.18;66.03;101737.25;5066487;28;20247;-78
2022/07/19 07:21:40;;;;;;;11.05;4.90;;;;;;;22.25;65.89;101735.81;4997718;28;20049;-78
2022/07/19 07:24:05;;;;;;;6.22;4.68;;;;;;;22.31;65.30;101743.38;5030733;28;20039;-78
2022/07/19 07:26:32;;;;;;;6.45;4.90;;;;;;;22.39;65.64;101740.09;5023785;28;20364;-78
2022/07/19 07:28:58;;;;;;;6.45;4.75;;;;;;;22.46;64.74;101741.34;5024910;28;20037;-78
2022/07/19 07:31:23;;;;;;;8.25;4.65;;;;;;;22.52;64.44;101742.69;5026775;28;20196;-78
2022/07/19 07:33:49;;;;;;;7.55;4.88;;;;;;;22.56;63.97;101733.50;5008497;28;20115;-78
2022/07/19 07:36:14;;;;;;;8.82;5.28;;;;;;;22.61;62.00;101739.28;5038556;28;20367;-78
2022/07/19 07:38:40;;;;;;;8.57;5.20;;;;;;;22.67;61.68;101736.16;4986339;28;20039;-78
2022/07/19 07:41:05;;;;;;;7.70;5.40;;;;;;;22.75;61.14;101735.56;5004682;28;20199;-78
2022/07/19 07:43:31;;;;;;;8.43;5.18;;;;;;;22.82;61.42;101734.13;5035309;28;20053;-78
2022/07/19 07:45:56;;;;;;;11.25;6.40;;;;;;;22.90;59.52;101742.38;5034823;28;20044;-77
2022/07/19 07:48:21;;;;;;;7.70;6.10;;;;;;;22.96;60.02;101738.38;5027817;28;20033;-78
2022/07/19 07:50:47;;;;;;;11.85;6.38;;;;;;;23.03;59.61;101746.72;5008724;28;20083;-78
2022/07/19 07:53:13;;;;;;;7.15;5.78;;;;;;;23.08;60.09;101737.41;4997882;28;20046;-77
2022/07/19 07:55:41;;;;;;;9.13;5.32;;;;;;;23.15;59.24;101735.94;5021794;28;20210;-78
2022/07/19 07:58:08;;;;;;;13.38;6.03;;;;;;;23.24;59.29;101737.03;5034922;28;20078;-78
2022/07/19 08:00:34;;;;;;;12.73;5.40;;;;;;;23.31;59.25;101740.06;5034973;28;20264;-78
2022/07/19 08:03:00;;;;;;;9.98;5.50;;;;;;;23.38;59.16;101736.78;5032306;28;20037;-78
2022/07/19 08:05:25;;;;;;;7.70;5.80;;;;;;;23.49;59.07;101737.75;5030791;28;20036;-78
2022/07/19 08:07:51;;;;;;;15.15;7.45;;;;;;;23.64;57.21;101738.31;5027151;28;20065;-77
2022/07/19 08:10:17;;;;;;;12.98;7.43;;;;;;;23.82;56.07;101736.81;5026019;28;20030;-78
2022/07/19 08:12:43;;;;;;;10.45;6.68;;;;;;;23.99;55.99;101734.56;5013198;28;20034;-78
2022/07/19 08:15:09;;;;;;;14.35;5.95;;;;;;;24.04;56.20;101727.84;5021482;28;20340;-78
2022/07/19 08:17:34;;;;;;;8.38;5.60;;;;;;;24.16;56.23;101723.31;5020744;28;20117;-78
2022/07/19 08:20:00;;;;;;;5.45;4.93;;;;;;;24.18;56.55;101723.19;5036963;28;20237;-78
2022/07/19 08:22:28;;;;;;;14.38;6.00;;;;;;;24.34;55.19;101723.56;5040040;28;20021;-78
2022/07/19 08:24:53;;;;;;;6.22;5.47;;;;;;;24.44;55.60;101718.25;5049992;28;20071;-78
2022/07/19 08:27:19;;;;;;;7.07;4.65;;;;;;;24.53;55.41;101722.84;5047657;28;20336;-78
2022/07/19 08:29:44;;;;;;;8.23;4.38;;;;;;;24.59;55.24;101718.78;5046968;28;20037;-78
2022/07/19 08:32:10;;;;;;;11.95;4.20;;;;;;;24.61;55.89;101720.34;5037022;28;20241;-78
2022/07/19 08:34:35;;;;;;;5.90;4.65;;;;;;;24.63;56.33;101718.41;5041888;28;20089;-78
2022/07/19 08:37:00;;;;;;;11.70;4.28;;;;;;;24.70;55.99;101713.34;5051040;28;20032;-78
2022/07/19 08:39:26;;;;;;;5.38;4.15;;;;;;;24.77;54.64;101719.03;5050563;28;20029;-78
2022/07/19 08:41:51;;;;;;;6.95;3.80;;;;;;;24.81;55.13;101709.75;5034017;28;20029;-78
2022/07/19 08:44:16;;;;;;;3.30;3.00;;;;;;;24.82;55.83;101714.97;5047090;28;20048;-78
2022/07/19 08:46:43;;;;;;;10.43;3.63;;;;;;;24.84;56.01;101713.00;5052961;28;20032;-78
2022/07/19 08:49:09;;;;;;;8.90;3.63;;;;;;;24.86;54.86;101705.66;5055187;28;20090;-78
2022/07/19 08:51:35;;;;;;;8.48;2.95;;;;;;;24.91;55.74;101699.91;5052592;28;20033;-78
2022/07/19 08:54:01;;;;;;;4.25;3.00;;;;;;;25.00;55.94;101704.47;5054423;28;20063;-78
2022/07/19 08:59:12;;;;;;;5.00;3.20;;;;;;;25.21;52.89;101699.03;5057258;28;20044;-78
2022/07/19 09:01:37;;;;;;;6.40;3.30;;;;;;;25.31;52.20;101698.25;5062335;28;20036;-78
2022/07/19 09:04:14;;;;;;;4.60;2.97;;;;;;;25.34;52.66;101700.63;5051953;28;20248;-78
2022/07/19 09:06:51;;;;;;;4.30;2.83;;;;;;;25.39;53.35;101707.25;5049989;28;20040;-78
2022/07/19 09:09:19;;;;;;;3.63;2.83;;;;;;;25.47;53.21;101706.59;5049552;28;20032;-78
2022/07/19 09:11:50;;;;;;;8.95;2.90;;;;;;;25.54;53.27;101707.72;5055423;28;20031;-78
2022/07/19 09:14:25;;;;;;;3.75;2.53;;;;;;;25.59;52.53;101705.44;5052612;28;20067;-78
2022/07/19 09:16:55;;;;;;;9.20;2.70;;;;;;;25.65;52.96;101696.88;5054747;28;20111;-78
2022/07/19 09:19:21;;;;;;;3.85;2.42;;;;;;;25.72;53.91;101697.13;5049827;28;20033;-78
2022/07/19 09:22:00;;;;;;;5.68;2.78;;;;;;;25.80;53.47;101694.59;5053532;28;20118;-78
2022/07/19 09:24:27;;;;;;;7.47;3.00;;;;;;;25.93;53.81;101693.50;5053350;28;20221;-78
2022/07/19 09:27:01;;;;;;;2.88;2.45;;;;;;;26.03;52.36;101691.66;5052265;28;20047;-78
2022/07/19 09:29:28;;;;;;;5.88;2.47;;;;;;;26.13;51.45;101681.75;5039370;28;20243;-78
2022/07/19 09:32:05;;;;;;;4.75;2.78;;;;;;;26.22;49.55;101683.56;5048743;28;20040;-79
2022/07/19 09:34:33;;;;;;;4.53;2.73;;;;;;;26.31;48.31;101670.28;5045635;28;20032;-78
2022/07/19 09:37:27;;;;;;;4.00;2.75;;;;;;;26.41;48.79;101676.44;5051568;28;20332;-78
2022/07/19 09:40:01;;;;;;;6.95;3.10;;;;;;;26.54;48.78;101674.31;5041434;28;20029;-78
2022/07/19 09:42:37;;;;;;;5.72;2.72;;;;;;;26.62;48.04;101671.75;5049008;28;20044;-78
2022/07/19 09:45:08;;;;;;;9.05;2.80;;;;;;;26.68;48.79;101669.47;5050759;28;20063;-79
2022/07/19 09:47:39;;;;;;;4.80;2.20;;;;;;;26.69;49.38;101677.38;5044481;28;20055;-78
2022/07/19 09:50:07;;;;;;;3.13;2.30;;;;;;;26.75;49.23;101674.09;5052389;28;20362;-79
2022/07/19 09:52:34;;;;;;;4.15;2.67;;;;;;;26.79;48.44;101672.78;5058061;28;20041;-78
2022/07/19 09:55:03;;;;;;;8.82;2.53;;;;;;;26.86;48.96;101672.22;5052554;28;20031;-79
2022/07/19 09:57:36;;;;;;;5.15;2.60;;;;;;;26.97;46.62;101672.00;5053639;28;20029;-78
2022/07/19 10:00:05;;;;;;;3.80;2.40;;;;;;;27.03;47.82;101666.03;5050839;28;20033;-78
2022/07/19 10:02:35;;;;;;;4.55;2.33;;;;;;;27.12;48.51;101665.16;5055832;28;20045;-79
2022/07/19 10:05:02;;;;;;;3.85;2.40;;;;;;;27.20;47.84;101659.84;5053619;28;20324;-78
2022/07/19 10:07:28;;;;;;;3.20;2.30;;;;;;;27.31;47.67;101652.59;5054610;28;20397;-78
2022/07/19 10:09:53;;;;;;;4.72;2.25;;;;;;;27.42;48.27;101651.53;5041531;28;20065;-78
2022/07/19 10:12:18;;;;;;;3.78;2.40;;;;;;;27.47;48.61;101647.38;5053341;28;20065;-79
2022/07/19 10:14:44;;;;;;;5.13;2.50;;;;;;;27.57;47.01;101644.59;5057367;28;20210;-79
2022/07/19 10:17:27;;;;;;;5.32;2.33;;;;;;;27.67;46.02;101647.19;5057809;28;20037;-78
2022/07/19 10:19:54;;;;;;;5.25;2.50;;;;;;;27.73;47.00;101642.03;5056763;28;20344;-78
2022/07/19 10:22:25;;;;;;;6.05;2.47;;;;;;;27.81;48.85;101648.50;5056914;28;20036;-78
2022/07/19 10:24:50;;;;;;;2.75;2.10;;;;;;;27.87;48.71;101637.97;5057139;28;20041;-78
2022/07/19 10:27:37;;;;;;;3.63;2.50;;;;;;;27.91;48.44;101646.59;5055935;28;20386;-78
2022/07/19 10:30:12;;;;;;;5.47;2.60;;;;;;;27.94;46.61;101633.66;5051542;28;20084;-78
2022/07/19 10:32:43;;;;;;;6.20;2.60;;;;;;;28.04;45.21;101638.94;5038286;28;20473;-78
2022/07/19 10:35:26;;;;;;;2.85;2.58;;;;;;;28.10;47.17;101638.31;5033304;28;20316;-78
2022/07/19 10:38:00;;;;;;;3.42;2.47;;;;;;;28.18;46.57;101647.44;5055510;28;20032;-78
2022/07/19 10:40:36;;;;;;;2.92;2.50;;;;;;;28.26;46.40;101634.03;5061720;28;20062;-78
2022/07/19 10:43:06;;;;;;;3.95;2.60;;;;;;;28.31;47.00;101629.84;5058712;28;20048;-78
2022/07/19 10:45:32;;;;;;;2.38;2.05;;;;;;;28.38;47.52;101630.06;5006054;28;20032;-78
2022/07/19 10:48:02;;;;;;;4.85;2.70;;;;;;;28.45;48.82;101631.13;5063872;28;20123;-78
2022/07/19 10:50:55;;;;;;;3.13;2.40;;;;;;;28.56;45.30;101630.03;5057123;28;20090;-78
2022/07/19 10:53:39;;;;;;;4.85;2.10;;;;;;;28.62;45.16;101626.66;5055040;28;20397;-78
2022/07/19 10:56:17;;;;;;;10.20;2.95;;;;;;;28.66;43.59;101621.78;5059097;28;20040;-79
2022/07/19 10:58:51;;;;;;;3.38;2.45;;;;;;;28.71;43.78;101622.16;5056469;28;20284;-79
2022/07/19 11:01:19;;;;;;;6.88;2.42;;;;;;;28.76;44.09;101621.66;5054021;28;20371;-79
2022/07/19 11:03:45;;;;;;;4.15;2.53;;;;;;;28.87;43.06;101615.97;5050379;28;20036;-78
2022/07/19 11:06:25;;;;;;;6.57;2.50;;;;;;;28.96;42.18;101608.75;5037179;28;20045;-79
2022/07/19 11:08:56;;;;;;;7.63;2.78;;;;;;;29.08;41.71;101605.56;5056303;28;20118;-78
2022/07/19 11:11:23;;;;;;;3.15;2.35;;;;;;;29.17;42.14;101616.41;5042202;28;20359;-78
2022/07/19 11:13:54;;;;;;;3.33;2.38;;;;;;;29.21;42.04;101607.81;5034623;28;20321;-78
2022/07/19 11:16:20;;;;;;;7.95;2.30;;;;;;;29.26;43.59;101607.31;5040755;28;20251;-78
2022/07/19 11:18:46;;;;;;;6.32;2.33;;;;;;;29.31;43.91;101613.06;5062941;28;20100;-78
2022/07/19 11:21:13;;;;;;;4.20;2.70;;;;;;;29.36;42.43;101605.31;5065127;28;20075;-78
2022/07/19 11:23:39;;;;;;;8.82;2.75;;;;;;;29.43;44.89;101608.16;5038117;28;20044;-78
2022/07/19 11:26:20;;;;;;;2.70;2.50;;;;;;;29.50;43.41;101603.78;5056346;28;20067;-78
2022/07/19 11:28:47;;;;;;;10.00;2.58;;;;;;;29.54;41.69;101598.91;5038190;28;20040;-78